createdAt,value
2019-06-25T00:00:59.928Z,25.55
2019-06-25T00:06:02.648Z,25.35
2019-06-25T00:11:05.345Z,25.22
2019-06-25T00:16:08.082Z,25.05
2019-06-25T00:21:10.805Z,24.92
2019-06-25T00:26:13.793Z,24.81
2019-06-25T00:31:16.482Z,24.87
2019-06-25T00:36:19.207Z,24.83
2019-06-25T00:41:21.902Z,24.83
2019-06-25T00:46:25.872Z,24.82
2019-06-25T00:51:28.677Z,24.81
2019-06-25T00:56:31.378Z,24.81
2019-06-25T01:01:34.174Z,24.85
2019-06-25T01:06:36.877Z,24.90
2019-06-25T01:11:39.912Z,24.92
2019-06-25T01:16:42.612Z,24.87
2019-06-25T01:21:45.298Z,24.72
2019-06-25T01:26:51.121Z,24.60
2019-06-25T01:31:52.643Z,24.29
2019-06-25T01:36:55.418Z,24.21
2019-06-25T01:41:58.112Z,24.24
2019-06-25T01:47:00.812Z,24.15
2019-06-25T01:52:03.541Z,24.03
2019-06-25T01:57:06.308Z,24.12
2019-06-25T02:02:09.003Z,24.16
2019-06-25T02:07:11.699Z,24.15
2019-06-25T02:12:14.401Z,24.18
2019-06-25T02:17:17.102Z,24.07
2019-06-25T02:22:19.806Z,23.96
2019-06-25T02:27:22.492Z,23.82
2019-06-25T02:32:25.194Z,23.73
2019-06-25T02:37:27.898Z,23.77
2019-06-25T02:42:33.386Z,23.75
2019-06-25T02:47:35.195Z,23.74
2019-06-25T02:52:37.892Z,23.68
2019-06-25T02:57:40.599Z,23.60
2019-06-25T03:02:43.286Z,23.35
2019-06-25T03:07:45.996Z,23.30
2019-06-25T03:12:48.776Z,23.39
2019-06-25T03:17:51.469Z,23.47
2019-06-25T03:22:54.257Z,23.42
2019-06-25T03:27:56.970Z,23.50
2019-06-25T03:32:59.702Z,23.52
2019-06-25T03:38:02.451Z,23.50
2019-06-25T03:43:05.274Z,23.57
2019-06-25T03:48:08.121Z,23.69
2019-06-25T03:53:10.818Z,23.80
2019-06-25T03:58:13.529Z,23.84
2019-06-25T04:03:16.237Z,23.89
2019-06-25T04:08:19.009Z,23.91
2019-06-25T04:13:21.767Z,24.03
2019-06-25T04:18:24.499Z,24.03
2019-06-25T04:23:27.194Z,24.03
2019-06-25T04:28:29.904Z,24.22
2019-06-25T04:33:32.630Z,24.38
2019-06-25T04:38:35.422Z,24.51
2019-06-25T04:43:38.112Z,24.60
2019-06-25T04:48:40.810Z,24.68
2019-06-25T04:53:43.502Z,24.80
2019-06-25T04:58:46.203Z,24.92
2019-06-25T05:03:48.915Z,25.07
2019-06-25T05:08:53.694Z,25.31
2019-06-25T05:13:57.210Z,25.70
2019-06-25T05:18:59.918Z,26.06
2019-06-25T05:24:02.857Z,26.45
2019-06-25T05:29:05.565Z,26.66
2019-06-25T05:34:08.355Z,26.94
2019-06-25T05:39:11.049Z,26.97
2019-06-25T05:44:13.745Z,27.02
2019-06-25T05:49:16.434Z,26.96
2019-06-25T05:54:19.134Z,27.15
2019-06-25T05:59:21.840Z,27.35
2019-06-25T06:04:24.602Z,27.36
2019-06-25T06:09:27.436Z,27.50
2019-06-25T06:14:30.132Z,27.54
2019-06-25T06:19:32.972Z,27.84
2019-06-25T06:24:35.659Z,27.94
2019-06-25T06:29:38.350Z,28.21
2019-06-25T06:34:41.044Z,28.62
2019-06-25T06:39:43.740Z,28.83
2019-06-25T06:44:46.448Z,29.10
2019-06-25T06:49:49.132Z,29.56
2019-06-25T06:54:51.836Z,29.89
2019-06-25T06:59:54.555Z,30.16
2019-06-25T07:04:57.259Z,30.53
2019-06-25T07:09:59.965Z,30.84
2019-06-25T07:15:03.553Z,31.13
2019-06-25T07:20:06.505Z,31.36
2019-06-25T07:25:09.215Z,31.47
2019-06-25T07:30:19.731Z,31.51
2019-06-25T07:35:22.421Z,31.70
2019-06-25T07:40:25.113Z,31.85
2019-06-25T07:45:27.798Z,31.96
2019-06-25T07:50:30.529Z,32.21
2019-06-25T07:55:33.216Z,32.36
2019-06-25T08:00:35.907Z,32.49
2019-06-25T08:05:38.618Z,32.51
2019-06-25T08:10:41.875Z,32.55
2019-06-25T08:15:44.759Z,32.48
2019-06-25T08:20:47.454Z,32.44
2019-06-25T08:25:50.180Z,32.57
2019-06-25T08:30:52.875Z,32.96
2019-06-25T08:35:55.566Z,33.32
2019-06-25T08:40:58.285Z,33.52
2019-06-25T08:46:00.985Z,33.56
2019-06-25T08:51:03.892Z,33.63
2019-06-25T08:56:06.704Z,33.79
2019-06-25T09:01:09.416Z,33.81
2019-06-25T09:06:12.113Z,33.71
2019-06-25T09:11:14.811Z,33.65
2019-06-25T09:16:17.509Z,33.94
2019-06-25T09:21:20.219Z,34.14
2019-06-25T09:26:22.922Z,34.15
2019-06-25T09:31:25.618Z,34.39
2019-06-25T09:36:28.316Z,34.36
2019-06-25T09:41:29.586Z,34.35
2019-06-25T09:46:32.285Z,34.50
2019-06-25T09:51:35.885Z,34.37
2019-06-25T09:56:38.610Z,34.68
2019-06-25T10:01:45.586Z,34.70
2019-06-25T10:06:45.914Z,34.51
2019-06-25T10:11:48.603Z,34.54
2019-06-25T10:16:51.399Z,34.71
2019-06-25T10:21:54.143Z,34.80
2019-06-25T10:26:56.944Z,34.88
2019-06-25T10:31:59.631Z,35.09
2019-06-25T10:37:02.425Z,35.02
2019-06-25T10:42:05.165Z,35.17
2019-06-25T10:47:07.879Z,35.10
2019-06-25T10:52:10.566Z,35.27
2019-06-25T10:57:13.286Z,35.37
2019-06-25T11:02:16.096Z,35.37
2019-06-25T11:07:18.807Z,35.37
2019-06-25T11:12:21.541Z,35.59
2019-06-25T11:17:24.292Z,35.77
2019-06-25T11:22:27.004Z,36.08
2019-06-25T11:27:29.742Z,36.25
2019-06-25T11:32:32.494Z,36.24
2019-06-25T11:37:35.181Z,36.26
2019-06-25T11:42:37.868Z,36.32
2019-06-25T11:47:40.566Z,36.18
2019-06-25T11:52:43.283Z,36.02
2019-06-25T11:57:45.992Z,36.06
2019-06-25T12:02:48.892Z,36.15
2019-06-25T12:07:51.609Z,36.15
2019-06-25T12:12:54.299Z,36.27
2019-06-25T12:17:57.039Z,36.51
2019-06-25T12:22:59.739Z,36.50
2019-06-25T12:28:02.435Z,36.58
2019-06-25T12:33:05.140Z,36.54
2019-06-25T12:38:07.882Z,36.45
2019-06-25T12:43:10.656Z,36.50
2019-06-25T12:48:13.368Z,36.69
2019-06-25T12:53:16.086Z,36.78
2019-06-25T12:58:18.877Z,36.91
2019-06-25T13:03:21.692Z,37.01
2019-06-25T13:08:24.375Z,36.97
2019-06-25T13:13:27.071Z,37.13
2019-06-25T13:18:29.773Z,37.15
2019-06-25T13:23:32.451Z,37.24
2019-06-25T13:28:35.219Z,37.26
2019-06-25T13:33:37.919Z,37.23
2019-06-25T13:38:40.617Z,37.43
2019-06-25T13:43:43.329Z,37.52
2019-06-25T13:48:46.034Z,37.69
2019-06-25T13:53:48.737Z,37.78
2019-06-25T13:58:51.454Z,37.93
2019-06-25T14:03:54.262Z,38.23
2019-06-25T14:08:57.051Z,38.28
2019-06-25T14:13:59.761Z,38.48
2019-06-25T14:19:02.488Z,38.55
2019-06-25T14:24:05.341Z,38.85
2019-06-25T14:29:08.122Z,38.86
2019-06-25T14:34:10.825Z,39.01
2019-06-25T14:39:13.624Z,39.20
2019-06-25T14:44:16.515Z,39.31
2019-06-25T14:49:19.842Z,39.40
2019-06-25T14:54:22.524Z,39.40
2019-06-25T14:59:25.385Z,39.58
2019-06-25T15:04:28.114Z,39.62
2019-06-25T15:09:43.553Z,39.70
2019-06-25T15:14:35.438Z,39.88
2019-06-25T15:19:38.172Z,40.02
2019-06-25T15:24:40.886Z,39.88
2019-06-25T15:29:43.600Z,39.95
2019-06-25T15:34:47.229Z,39.56
2019-06-25T15:39:50.199Z,39.42
2019-06-25T15:44:52.932Z,39.83
2019-06-25T15:49:55.773Z,40.01
2019-06-25T15:54:58.718Z,39.84
2019-06-25T16:00:01.596Z,39.76
2019-06-25T16:05:05.244Z,39.48
2019-06-25T16:10:08.229Z,39.34
2019-06-25T16:15:12.451Z,39.46
2019-06-25T16:20:15.668Z,39.50
2019-06-25T16:25:18.394Z,39.82
2019-06-25T16:30:21.301Z,39.81
2019-06-25T16:35:24.003Z,39.79
2019-06-25T16:40:26.713Z,39.95
2019-06-25T16:45:29.493Z,40.07
2019-06-25T16:50:32.286Z,39.89
2019-06-25T16:55:35.044Z,39.57
2019-06-25T17:00:37.882Z,39.44
2019-06-25T17:05:40.569Z,39.56
2019-06-25T17:10:43.993Z,39.67
2019-06-25T17:15:46.722Z,39.62
2019-06-25T17:20:49.424Z,39.51
2019-06-25T17:25:52.175Z,39.44
2019-06-25T17:30:54.881Z,39.26
2019-06-25T17:35:57.589Z,38.93
2019-06-25T17:41:00.452Z,38.67
2019-06-25T17:46:03.251Z,38.12
2019-06-25T17:51:05.956Z,37.78
2019-06-25T17:56:09.525Z,37.51
2019-06-25T18:01:12.261Z,37.36
2019-06-25T18:06:15.010Z,36.99
2019-06-25T18:11:17.747Z,37.02
2019-06-25T18:16:20.445Z,36.67
2019-06-25T18:21:23.169Z,36.52
2019-06-25T18:26:25.860Z,36.28
2019-06-25T18:31:28.616Z,36.09
2019-06-25T18:36:31.297Z,35.69
2019-06-25T18:41:34.006Z,35.52
2019-06-25T18:46:36.708Z,35.29
2019-06-25T18:51:39.725Z,35.09
2019-06-25T18:56:42.607Z,34.87
2019-06-25T19:01:45.328Z,34.55
2019-06-25T19:06:48.174Z,34.38
2019-06-25T19:11:50.885Z,34.11
2019-06-25T19:16:53.592Z,33.76
2019-06-25T19:21:56.290Z,33.70
2019-06-25T19:26:58.997Z,33.60
2019-06-25T19:32:02.117Z,33.42
2019-06-25T19:37:05.049Z,33.32
2019-06-25T19:42:07.798Z,33.19
2019-06-25T19:47:10.573Z,33.03
2019-06-25T19:52:13.286Z,33.00
2019-06-25T19:57:15.986Z,32.91
2019-06-25T20:02:18.815Z,32.77
2019-06-25T20:07:21.538Z,32.67
2019-06-25T20:12:24.236Z,32.61
2019-06-25T20:17:26.946Z,32.53
2019-06-25T20:22:29.654Z,32.44
2019-06-25T20:27:32.369Z,32.37
2019-06-25T20:32:35.102Z,32.28
2019-06-25T20:37:37.810Z,32.12
2019-06-25T20:42:40.610Z,32.02
2019-06-25T20:47:46.501Z,31.96
2019-06-25T20:52:48.085Z,31.93
2019-06-25T20:57:51.026Z,31.91
2019-06-25T21:02:53.864Z,31.89
2019-06-25T21:07:56.644Z,31.80
2019-06-25T21:12:59.369Z,31.69
2019-06-25T21:18:02.072Z,31.61
2019-06-25T21:23:04.823Z,31.51
2019-06-25T21:28:07.628Z,31.38
2019-06-25T21:33:10.620Z,31.19
2019-06-25T21:38:13.579Z,31.01
2019-06-25T21:43:16.368Z,30.84
2019-06-25T21:48:19.050Z,30.70
2019-06-25T21:53:21.770Z,30.57
2019-06-25T21:58:24.798Z,30.47
2019-06-25T22:03:27.774Z,30.37
2019-06-25T22:08:30.535Z,30.31
2019-06-25T22:13:33.288Z,30.21
2019-06-25T22:18:36.019Z,30.14
2019-06-25T22:23:38.754Z,30.11
2019-06-25T22:28:41.474Z,30.07
2019-06-25T22:33:44.193Z,29.94
2019-06-25T22:38:46.911Z,29.83
2019-06-25T22:43:49.627Z,29.75
2019-06-25T22:48:52.337Z,29.76
2019-06-25T22:53:55.061Z,29.73
2019-06-25T22:58:57.766Z,29.64
2019-06-25T23:04:00.481Z,29.55
2019-06-25T23:09:05.661Z,29.48
2019-06-25T23:14:08.370Z,29.42
2019-06-25T23:19:11.068Z,29.40
2019-06-25T23:24:13.822Z,29.37
2019-06-25T23:29:16.603Z,29.30
2019-06-25T23:34:19.303Z,29.22
2019-06-25T23:39:21.995Z,29.01
2019-06-25T23:44:24.696Z,28.89
2019-06-25T23:49:27.407Z,28.83
2019-06-25T23:54:30.098Z,28.75
2019-06-25T23:59:32.791Z,28.69
